createdAt,value
2023-04-18T00:04:26.771Z,10.67
2023-04-18T00:09:29.257Z,8.83
2023-04-18T00:14:31.719Z,8.77
2023-04-18T00:19:34.461Z,7.50
2023-04-18T00:24:36.875Z,7.90
2023-04-18T00:29:40.683Z,8.50
2023-04-18T00:34:43.077Z,7.67
2023-04-18T00:39:45.472Z,8.40
2023-04-18T00:44:48.228Z,9.77
2023-04-18T00:49:50.699Z,8.83
2023-04-18T00:54:53.330Z,8.87
2023-04-18T00:59:55.983Z,9.17
2023-04-18T01:05:00.940Z,9.23
2023-04-18T01:10:04.438Z,8.73
2023-04-18T01:15:08.187Z,9.37
2023-04-18T01:20:12.597Z,9.33
2023-04-18T01:25:15.873Z,6.23
2023-04-18T01:30:18.261Z,8.13
2023-04-18T01:35:20.610Z,5.90
2023-04-18T01:40:23.096Z,5.83
2023-04-18T01:45:25.685Z,6.00
2023-04-18T01:50:28.135Z,5.80
2023-04-18T01:55:30.665Z,6.13
2023-04-18T02:00:33.143Z,5.27
2023-04-18T02:05:37.797Z,5.30
2023-04-18T02:10:42.882Z,4.60
2023-04-18T02:15:46.067Z,5.07
2023-04-18T02:20:51.614Z,5.70
2023-04-18T02:25:53.981Z,6.77
2023-04-18T02:30:56.360Z,7.00
2023-04-18T02:35:58.566Z,6.33
2023-04-18T02:41:00.981Z,6.30
2023-04-18T02:46:03.391Z,7.10
2023-04-18T02:51:07.822Z,10.10
2023-04-18T02:56:14.891Z,7.90
2023-04-18T03:01:35.928Z,7.93
2023-04-18T03:06:44.828Z,8.77
2023-04-18T03:11:47.346Z,8.40
2023-04-18T03:16:54.593Z,8.30
2023-04-18T03:22:01.269Z,9.10
2023-04-18T03:27:04.415Z,7.87
2023-04-18T03:32:06.930Z,8.33
2023-04-18T03:37:09.465Z,8.80
2023-04-18T03:42:17.620Z,8.20
2023-04-18T03:47:20.639Z,9.80
2023-04-18T03:52:29.918Z,11.10
2023-04-18T03:57:32.651Z,8.03
2023-04-18T04:02:36.195Z,8.20
2023-04-18T04:07:38.731Z,8.07
2023-04-18T04:12:42.164Z,6.57
2023-04-18T04:17:44.812Z,6.80
2023-04-18T04:22:47.612Z,6.60
2023-04-18T04:27:53.839Z,7.90
2023-04-18T04:32:57.651Z,9.40
2023-04-18T04:38:01.760Z,8.40
2023-04-18T04:43:15.720Z,9.23
2023-04-18T04:48:21.979Z,10.43
2023-04-18T04:53:32.113Z,9.63
2023-04-18T04:58:36.978Z,9.93
2023-04-18T05:03:45.386Z,14.70
2023-04-18T05:08:51.605Z,18.83
2023-04-18T05:13:53.936Z,12.60
2023-04-18T05:18:56.187Z,14.10
2023-04-18T05:23:58.466Z,13.50
2023-04-18T05:29:00.995Z,14.67
2023-04-18T05:34:03.273Z,20.17
2023-04-18T05:39:05.542Z,20.37
2023-04-18T05:44:08.066Z,20.20
2023-04-18T05:49:10.424Z,22.73
2023-04-18T05:54:13.640Z,24.40
2023-04-18T05:59:16.179Z,23.17
2023-04-18T06:04:19.432Z,23.57
2023-04-18T06:09:21.994Z,22.03
2023-04-18T06:14:24.572Z,21.20
2023-04-18T06:19:26.867Z,27.80
2023-04-18T06:24:31.224Z,23.67
2023-04-18T06:29:35.592Z,26.60
2023-04-18T06:34:38.541Z,24.47
2023-04-18T06:39:40.841Z,27.80
2023-04-18T06:44:43.388Z,27.87
2023-04-18T06:49:45.698Z,29.07
2023-04-18T06:54:47.986Z,30.77
2023-04-18T06:59:50.287Z,28.13
2023-04-18T07:04:52.576Z,27.70
2023-04-18T07:09:55.169Z,26.20
2023-04-18T07:14:57.427Z,26.43
2023-04-18T07:20:00.888Z,26.73
2023-04-18T07:25:03.201Z,25.10
2023-04-18T07:30:06.442Z,25.70
2023-04-18T07:35:09.259Z,29.73
2023-04-18T07:40:12.326Z,25.40
2023-04-18T07:45:15.672Z,24.80
2023-04-18T07:50:18.132Z,28.10
2023-04-18T07:55:20.749Z,26.33
2023-04-18T08:00:23.111Z,22.83
2023-04-18T08:05:25.540Z,24.83
2023-04-18T08:10:28.006Z,27.03
2023-04-18T08:15:32.876Z,24.37
2023-04-18T08:20:37.257Z,23.57
2023-04-18T08:25:39.711Z,26.47
2023-04-18T08:30:42.814Z,24.93
2023-04-18T08:35:45.064Z,22.90
2023-04-18T08:40:48.125Z,21.40
2023-04-18T08:45:50.831Z,21.73
2023-04-18T08:50:58.714Z,22.80
2023-04-18T08:56:01.563Z,21.27
2023-04-18T09:01:04.028Z,20.70
2023-04-18T09:06:12.738Z,25.13
2023-04-18T09:11:42.630Z,20.90
2023-04-18T09:16:48.057Z,19.23
2023-04-18T09:22:01.012Z,19.00
2023-04-18T09:27:04.422Z,20.43
2023-04-18T09:32:07.114Z,18.07
2023-04-18T09:37:12.578Z,19.40
2023-04-18T09:42:14.844Z,19.43
2023-04-18T09:47:16.953Z,18.53
2023-04-18T09:52:21.242Z,19.30
2023-04-18T09:57:28.780Z,28.63
2023-04-18T10:02:45.248Z,18.93
2023-04-18T10:07:49.956Z,20.60
2023-04-18T10:12:56.563Z,20.87
2023-04-18T10:18:11.127Z,17.67
2023-04-18T10:23:40.628Z,17.97
2023-04-18T10:28:59.614Z,20.10
2023-04-18T10:34:06.319Z,18.80
2023-04-18T10:39:25.702Z,16.80
2023-04-18T10:44:28.186Z,20.07
2023-04-18T10:49:34.088Z,17.47
2023-04-18T10:54:55.187Z,17.00
2023-04-18T10:59:58.524Z,18.10
2023-04-18T11:05:04.586Z,16.17
2023-04-18T11:10:09.579Z,16.30
2023-04-18T11:15:23.774Z,17.00
2023-04-18T11:20:26.775Z,16.33
2023-04-18T11:25:37.095Z,15.03
2023-04-18T11:30:41.288Z,16.67
2023-04-18T11:35:47.392Z,16.77
2023-04-18T11:40:50.709Z,19.00
2023-04-18T11:46:00.710Z,18.00
2023-04-18T11:51:03.119Z,18.03
2023-04-18T11:56:06.515Z,19.07
2023-04-18T12:01:20.661Z,18.87
2023-04-18T12:06:23.248Z,18.43
2023-04-18T12:11:25.700Z,19.23
2023-04-18T12:16:28.475Z,15.80
2023-04-18T12:21:33.215Z,16.53
2023-04-18T12:26:44.887Z,18.10
2023-04-18T12:31:48.246Z,16.63
2023-04-18T12:36:50.717Z,16.67
2023-04-18T12:41:53.026Z,17.90
2023-04-18T12:46:55.562Z,17.70
2023-04-18T12:51:57.971Z,16.80
2023-04-18T12:57:01.637Z,16.33
2023-04-18T13:02:04.150Z,20.47
2023-04-18T13:07:06.547Z,15.80
2023-04-18T13:12:08.762Z,17.83
2023-04-18T13:17:11.081Z,17.07
2023-04-18T13:22:13.450Z,15.30
2023-04-18T13:27:15.969Z,15.57
2023-04-18T13:32:18.427Z,15.67
2023-04-18T13:37:20.948Z,17.33
2023-04-18T13:42:23.234Z,16.77
2023-04-18T13:47:25.944Z,15.60
2023-04-18T13:52:28.337Z,17.50
2023-04-18T13:57:32.402Z,16.43
2023-04-18T14:02:34.900Z,15.50
2023-04-18T14:07:38.565Z,17.53
2023-04-18T14:12:41.080Z,17.90
2023-04-18T14:17:44.849Z,16.77
2023-04-18T14:22:52.861Z,15.67
2023-04-18T14:28:08.866Z,16.30
2023-04-18T14:33:11.387Z,14.57
2023-04-18T14:38:13.688Z,16.07
2023-04-18T14:43:16.167Z,14.97
2023-04-18T14:48:18.371Z,15.40
2023-04-18T14:53:21.426Z,16.17
2023-04-18T14:58:23.849Z,15.97
2023-04-18T15:03:26.174Z,14.97
2023-04-18T15:08:28.730Z,13.97
2023-04-18T15:13:31.462Z,14.10
2023-04-18T15:18:33.777Z,15.60
2023-04-18T15:23:36.026Z,14.23
2023-04-18T15:28:38.328Z,13.97
2023-04-18T15:33:40.601Z,14.70
2023-04-18T15:38:42.931Z,14.70
2023-04-18T15:43:45.574Z,13.80
2023-04-18T15:48:47.709Z,14.20
2023-04-18T15:53:49.997Z,13.40
2023-04-18T15:58:52.233Z,13.50
2023-04-18T16:03:54.498Z,14.50
2023-04-18T16:08:56.903Z,17.10
2023-04-18T16:13:59.002Z,11.60
2023-04-18T16:19:01.604Z,14.47
2023-04-18T16:24:03.840Z,14.07
2023-04-18T16:29:06.359Z,14.10
2023-04-18T16:34:09.571Z,14.20
2023-04-18T16:39:12.815Z,14.10
2023-04-18T16:44:15.284Z,13.50
2023-04-18T16:49:17.867Z,12.80
2023-04-18T16:54:19.991Z,12.47
2023-04-18T16:59:22.346Z,13.10
2023-04-18T17:04:27.089Z,11.60
2023-04-18T17:09:30.143Z,11.77
2023-04-18T17:14:32.386Z,12.10
2023-04-18T17:19:34.605Z,12.57
2023-04-18T17:24:36.728Z,12.07
2023-04-18T17:29:38.911Z,11.77
2023-04-18T17:34:41.107Z,11.40
2023-04-18T17:39:44.557Z,11.93
2023-04-18T17:44:46.797Z,11.53
2023-04-18T17:49:49.217Z,14.50
2023-04-18T17:54:51.697Z,13.13
2023-04-18T17:59:54.356Z,12.53
2023-04-18T18:04:56.628Z,9.80
2023-04-18T18:09:58.892Z,11.53
2023-04-18T18:15:01.196Z,13.03
2023-04-18T18:20:10.699Z,10.33
2023-04-18T18:25:13.085Z,11.53
2023-04-18T18:30:15.585Z,11.87
2023-04-18T18:35:18.002Z,13.50
2023-04-18T18:40:20.520Z,15.40
2023-04-18T18:45:23.051Z,16.13
2023-04-18T18:50:25.214Z,13.90
2023-04-18T18:55:27.727Z,14.77
2023-04-18T19:00:30.088Z,14.57
2023-04-18T19:05:32.361Z,17.00
2023-04-18T19:10:34.798Z,16.87
2023-04-18T19:15:37.257Z,14.27
2023-04-18T19:20:40.453Z,13.03
2023-04-18T19:25:42.830Z,13.40
2023-04-18T19:30:46.547Z,15.20
2023-04-18T19:35:48.809Z,13.77
2023-04-18T19:40:51.187Z,15.43
2023-04-18T19:45:55.262Z,14.67
2023-04-18T19:50:57.862Z,13.70
2023-04-18T19:56:00.002Z,13.77
2023-04-18T20:01:02.832Z,14.37
2023-04-18T20:06:06.370Z,13.67
2023-04-18T20:11:10.698Z,13.60
2023-04-18T20:16:12.963Z,14.03
2023-04-18T20:21:15.701Z,12.20
2023-04-18T20:26:17.992Z,12.20
2023-04-18T20:31:20.410Z,11.73
2023-04-18T20:36:23.741Z,11.37
2023-04-18T20:41:27.207Z,13.37
2023-04-18T20:46:29.569Z,12.23
2023-04-18T20:51:31.992Z,10.53
2023-04-18T20:56:36.043Z,10.70
2023-04-18T21:01:38.193Z,13.90
2023-04-18T21:06:40.446Z,11.33
2023-04-18T21:11:42.835Z,10.43
2023-04-18T21:16:45.102Z,8.90
2023-04-18T21:21:47.376Z,10.10
2023-04-18T21:26:49.526Z,9.30
2023-04-18T21:31:51.793Z,8.43
2023-04-18T21:36:54.230Z,8.67
2023-04-18T21:41:57.305Z,7.77
2023-04-18T21:46:59.561Z,8.30
2023-04-18T21:52:01.783Z,8.60
2023-04-18T21:57:05.902Z,6.10
2023-04-18T22:02:08.373Z,8.90
2023-04-18T22:07:12.531Z,7.60
2023-04-18T22:12:15.807Z,7.83
2023-04-18T22:17:17.948Z,8.90
2023-04-18T22:22:20.248Z,6.93
2023-04-18T22:27:22.550Z,8.90
2023-04-18T22:32:24.891Z,9.37
2023-04-18T22:37:27.161Z,8.27
2023-04-18T22:42:30.021Z,8.70
2023-04-18T22:47:32.751Z,7.33
2023-04-18T22:52:35.123Z,8.40
2023-04-18T22:57:38.981Z,8.23
2023-04-18T23:02:41.686Z,9.50
2023-04-18T23:07:44.243Z,8.60
2023-04-18T23:12:46.591Z,9.47
2023-04-18T23:17:51.301Z,9.40
2023-04-18T23:22:55.292Z,10.17
2023-04-18T23:27:57.521Z,10.30
2023-04-18T23:32:59.872Z,9.43
2023-04-18T23:38:02.353Z,9.63
2023-04-18T23:43:04.680Z,10.00
2023-04-18T23:48:07.113Z,9.80
2023-04-18T23:53:09.437Z,11.60
2023-04-18T23:58:11.815Z,9.10
